createdAt,value
2018-03-07T00:00:49.449Z,14.43
2018-03-07T00:03:17.592Z,13.85
2018-03-07T00:05:46.469Z,13.10
2018-03-07T00:08:14.608Z,14.02
2018-03-07T00:10:42.723Z,14.00
2018-03-07T00:13:10.844Z,14.15
2018-03-07T00:15:39.069Z,14.13
2018-03-07T00:18:07.235Z,13.75
2018-03-07T00:20:35.419Z,14.10
2018-03-07T00:23:03.547Z,14.40
2018-03-07T00:25:31.691Z,14.85
2018-03-07T00:27:59.927Z,14.30
2018-03-07T00:30:28.045Z,14.25
2018-03-07T00:32:56.157Z,14.15
2018-03-07T00:35:25.078Z,14.05
2018-03-07T00:37:53.206Z,14.52
2018-03-07T00:40:22.132Z,13.85
2018-03-07T00:42:51.034Z,14.30
2018-03-07T00:45:19.172Z,13.43
2018-03-07T00:47:47.304Z,13.45
2018-03-07T00:50:15.423Z,13.35
2018-03-07T00:52:43.625Z,13.85
2018-03-07T00:55:11.755Z,14.23
2018-03-07T00:57:39.910Z,14.38
2018-03-07T01:00:08.135Z,13.52
2018-03-07T01:02:36.243Z,13.27
2018-03-07T01:05:04.373Z,14.50
2018-03-07T01:07:33.271Z,13.60
2018-03-07T01:10:01.439Z,14.20
2018-03-07T01:12:29.563Z,14.13
2018-03-07T01:14:57.687Z,14.15
2018-03-07T01:17:25.819Z,13.57
2018-03-07T01:19:53.934Z,13.60
2018-03-07T01:22:22.930Z,13.60
2018-03-07T01:24:51.103Z,14.25
2018-03-07T01:27:19.239Z,13.48
2018-03-07T01:29:47.445Z,13.57
2018-03-07T01:32:15.622Z,13.85
2018-03-07T01:34:43.735Z,13.30
2018-03-07T01:37:11.882Z,13.98
2018-03-07T01:39:40.009Z,13.18
2018-03-07T01:42:08.894Z,14.15
2018-03-07T01:44:37.009Z,14.07
2018-03-07T01:47:05.138Z,14.35
2018-03-07T01:49:33.268Z,14.07
2018-03-07T01:52:01.390Z,13.45
2018-03-07T01:54:30.316Z,13.10
2018-03-07T01:56:58.442Z,13.38
2018-03-07T01:59:26.654Z,13.20
2018-03-07T02:01:54.778Z,13.95
2018-03-07T02:04:22.898Z,14.10
2018-03-07T02:06:51.034Z,14.32
2018-03-07T02:09:19.160Z,13.75
2018-03-07T02:11:47.320Z,13.68
2018-03-07T02:14:15.462Z,13.77
2018-03-07T02:16:43.574Z,13.30
2018-03-07T02:19:11.696Z,13.48
2018-03-07T02:21:39.834Z,14.00
2018-03-07T02:24:07.942Z,14.10
2018-03-07T02:26:37.584Z,13.70
2018-03-07T02:29:05.716Z,13.18
2018-03-07T02:31:33.876Z,13.77
2018-03-07T02:34:01.995Z,15.02
2018-03-07T02:36:32.844Z,14.10
2018-03-07T02:39:01.013Z,14.02
2018-03-07T02:41:29.200Z,14.07
2018-03-07T02:43:57.314Z,14.07
2018-03-07T02:46:25.440Z,14.05
2018-03-07T02:48:53.572Z,14.68
2018-03-07T02:51:21.698Z,13.68
2018-03-07T02:53:49.845Z,14.73
2018-03-07T02:56:18.739Z,13.55
2018-03-07T02:58:47.619Z,13.75
2018-03-07T03:01:16.535Z,13.60
2018-03-07T03:03:45.424Z,13.60
2018-03-07T03:06:13.584Z,13.90
2018-03-07T03:08:41.711Z,13.70
2018-03-07T03:11:09.826Z,13.48
2018-03-07T03:13:37.939Z,14.25
2018-03-07T03:16:06.172Z,14.18
2018-03-07T03:18:35.075Z,14.23
2018-03-07T03:21:03.199Z,13.70
2018-03-07T03:23:31.316Z,13.68
2018-03-07T03:25:59.487Z,14.02
2018-03-07T03:28:27.620Z,13.32
2018-03-07T03:30:55.758Z,14.40
2018-03-07T03:33:23.909Z,13.68
2018-03-07T03:35:52.081Z,13.60
2018-03-07T03:38:20.251Z,14.68
2018-03-07T03:40:48.423Z,14.38
2018-03-07T03:43:17.299Z,14.87
2018-03-07T03:45:46.211Z,15.45
2018-03-07T03:48:15.192Z,14.85
2018-03-07T03:50:44.084Z,13.95
2018-03-07T03:53:12.217Z,13.30
2018-03-07T03:55:40.443Z,14.95
2018-03-07T03:58:08.576Z,14.25
2018-03-07T04:00:36.783Z,14.35
2018-03-07T04:03:04.975Z,14.75
2018-03-07T04:05:33.135Z,15.18
2018-03-07T04:08:01.315Z,15.30
2018-03-07T04:10:29.470Z,14.35
2018-03-07T04:12:58.345Z,15.05
2018-03-07T04:15:27.235Z,14.73
2018-03-07T04:17:56.131Z,14.52
2018-03-07T04:20:25.039Z,15.27
2018-03-07T04:22:53.246Z,14.77
2018-03-07T04:25:21.398Z,15.00
2018-03-07T04:27:49.534Z,14.63
2018-03-07T04:30:17.731Z,13.88
2018-03-07T04:32:46.645Z,14.87
2018-03-07T04:35:14.767Z,14.52
2018-03-07T04:37:43.035Z,14.23
2018-03-07T04:40:11.163Z,14.57
2018-03-07T04:42:39.275Z,14.98
2018-03-07T04:45:08.916Z,14.73
2018-03-07T04:47:37.302Z,14.15
2018-03-07T04:50:05.443Z,14.15
2018-03-07T04:52:34.333Z,14.73
2018-03-07T04:55:02.447Z,14.77
2018-03-07T04:57:30.595Z,15.05
2018-03-07T04:59:59.479Z,14.60
2018-03-07T05:02:28.386Z,14.23
2018-03-07T05:04:56.562Z,14.38
2018-03-07T05:07:24.689Z,14.38
2018-03-07T05:09:52.828Z,14.20
2018-03-07T05:12:21.012Z,14.10
2018-03-07T05:14:49.157Z,14.85
2018-03-07T05:17:17.266Z,14.65
2018-03-07T05:19:45.382Z,14.48
2018-03-07T05:22:14.283Z,13.70
2018-03-07T05:24:43.192Z,14.18
2018-03-07T05:27:11.318Z,14.85
2018-03-07T05:29:39.437Z,14.82
2018-03-07T05:32:07.554Z,14.45
2018-03-07T05:34:35.692Z,15.05
2018-03-07T05:37:03.842Z,14.05
2018-03-07T05:39:32.020Z,14.57
2018-03-07T05:42:00.139Z,15.20
2018-03-07T05:44:28.252Z,15.13
2018-03-07T05:46:56.392Z,15.43
2018-03-07T05:49:24.525Z,16.17
2018-03-07T05:51:52.695Z,15.88
2018-03-07T05:54:20.816Z,15.98
2018-03-07T05:56:48.990Z,15.73
2018-03-07T05:59:17.097Z,14.80
2018-03-07T06:01:45.272Z,16.55
2018-03-07T06:04:13.398Z,16.42
2018-03-07T06:06:41.508Z,16.75
2018-03-07T06:09:10.430Z,16.10
2018-03-07T06:11:38.617Z,15.82
2018-03-07T06:14:06.720Z,16.05
2018-03-07T06:16:34.847Z,16.37
2018-03-07T06:19:02.996Z,15.63
2018-03-07T06:21:31.378Z,15.80
2018-03-07T06:23:59.549Z,15.73
2018-03-07T06:26:28.532Z,15.38
2018-03-07T06:28:57.475Z,15.77
2018-03-07T06:31:25.618Z,15.52
2018-03-07T06:33:53.784Z,15.90
2018-03-07T06:36:21.895Z,16.62
2018-03-07T06:38:50.050Z,16.35
2018-03-07T06:41:18.234Z,15.80
2018-03-07T06:43:46.400Z,16.30
2018-03-07T06:46:14.543Z,16.00
2018-03-07T06:48:42.675Z,17.17
2018-03-07T06:51:10.828Z,16.73
2018-03-07T06:53:38.950Z,17.50
2018-03-07T06:56:07.079Z,16.35
2018-03-07T06:58:35.220Z,17.12
2018-03-07T07:01:03.379Z,16.55
2018-03-07T07:03:32.391Z,16.87
2018-03-07T07:06:00.546Z,16.40
2018-03-07T07:08:28.659Z,16.20
2018-03-07T07:10:56.787Z,14.98
2018-03-07T07:13:25.674Z,15.88
2018-03-07T07:15:54.571Z,15.27
2018-03-07T07:18:23.464Z,15.23
2018-03-07T07:20:51.631Z,15.40
2018-03-07T07:23:19.765Z,15.65
2018-03-07T07:25:47.892Z,14.75
2018-03-07T07:28:16.035Z,15.05
2018-03-07T07:30:44.931Z,14.45
2018-03-07T07:33:13.071Z,14.48
2018-03-07T07:35:41.187Z,14.98
2018-03-07T07:38:09.335Z,15.13
2018-03-07T07:40:37.531Z,15.43
2018-03-07T07:43:05.652Z,16.05
2018-03-07T07:45:33.783Z,15.82
2018-03-07T07:48:01.919Z,16.58
2018-03-07T07:50:31.549Z,16.80
2018-03-07T07:53:00.447Z,17.80
2018-03-07T07:55:28.571Z,17.80
2018-03-07T07:57:56.682Z,18.15
2018-03-07T08:00:25.689Z,17.52
2018-03-07T08:02:53.811Z,18.27
2018-03-07T08:05:21.925Z,19.62
2018-03-07T08:07:50.923Z,20.25
2018-03-07T08:10:19.110Z,18.83
2018-03-07T08:12:47.240Z,17.83
2018-03-07T08:15:15.347Z,16.73
2018-03-07T08:17:43.498Z,16.87
2018-03-07T08:20:12.507Z,17.20
2018-03-07T08:22:40.691Z,17.48
2018-03-07T08:25:08.854Z,16.25
2018-03-07T08:27:37.890Z,15.55
2018-03-07T08:30:05.994Z,17.27
2018-03-07T08:32:34.917Z,16.27
2018-03-07T08:35:03.037Z,16.17
2018-03-07T08:37:31.369Z,14.77
2018-03-07T08:39:59.528Z,14.57
2018-03-07T08:42:28.427Z,14.73
2018-03-07T08:44:57.319Z,15.32
2018-03-07T08:47:25.487Z,15.43
2018-03-07T08:49:54.374Z,15.27
2018-03-07T08:52:23.270Z,14.65
2018-03-07T08:54:51.522Z,14.40
2018-03-07T08:57:19.598Z,13.70
2018-03-07T08:59:48.493Z,13.75
2018-03-07T09:02:17.428Z,13.48
2018-03-07T09:04:45.596Z,12.73
2018-03-07T09:07:13.712Z,14.02
2018-03-07T09:09:41.845Z,14.77
2018-03-07T09:12:10.021Z,13.80
2018-03-07T09:14:38.170Z,13.85
2018-03-07T09:17:06.333Z,14.13
2018-03-07T09:19:35.232Z,15.00
2018-03-07T09:22:03.458Z,14.63
2018-03-07T09:24:31.577Z,13.95
2018-03-07T09:26:59.749Z,14.55
2018-03-07T09:29:28.637Z,15.38
2018-03-07T09:31:57.668Z,16.12
2018-03-07T09:34:25.819Z,14.80
2018-03-07T09:36:54.682Z,15.13
2018-03-07T09:39:22.866Z,14.93
2018-03-07T09:41:51.746Z,14.85
2018-03-07T09:44:20.648Z,15.15
2018-03-07T09:46:49.539Z,16.50
2018-03-07T09:49:17.679Z,15.82
2018-03-07T09:51:46.578Z,14.48
2018-03-07T09:54:15.450Z,16.87
2018-03-07T09:56:43.577Z,15.95
2018-03-07T09:59:11.690Z,17.08
2018-03-07T10:01:39.820Z,16.70
2018-03-07T10:04:07.978Z,15.90
2018-03-07T10:06:36.972Z,14.45
2018-03-07T10:09:05.970Z,14.48
2018-03-07T10:11:34.964Z,16.05
2018-03-07T10:14:03.140Z,14.02
2018-03-07T10:16:31.277Z,13.20
2018-03-07T10:18:59.384Z,12.05
2018-03-07T10:21:28.060Z,13.35
2018-03-07T10:23:56.966Z,11.90
2018-03-07T10:26:25.076Z,9.93
2018-03-07T10:28:53.195Z,10.27
2018-03-07T10:31:21.372Z,9.25
2018-03-07T10:33:49.658Z,10.07
2018-03-07T10:36:18.520Z,10.55
2018-03-07T10:38:47.447Z,8.70
2018-03-07T10:41:15.724Z,9.43
2018-03-07T10:43:43.876Z,8.20
2018-03-07T10:46:12.778Z,8.80
2018-03-07T10:48:40.898Z,9.52
2018-03-07T10:51:10.567Z,9.13
2018-03-07T10:53:38.728Z,8.55
2018-03-07T10:56:07.606Z,8.40
2018-03-07T10:58:36.496Z,8.73
2018-03-07T11:01:05.504Z,6.53
2018-03-07T11:03:33.611Z,6.87
2018-03-07T11:06:01.757Z,7.07
2018-03-07T11:08:29.892Z,7.40
2018-03-07T11:10:58.802Z,6.03
2018-03-07T11:13:27.675Z,6.40
2018-03-07T11:15:56.585Z,6.05
2018-03-07T11:18:26.209Z,5.70
2018-03-07T11:20:54.397Z,4.82
2018-03-07T11:23:22.513Z,4.65
2018-03-07T11:25:50.607Z,4.95
2018-03-07T11:28:19.607Z,5.35
2018-03-07T11:30:48.493Z,4.60
2018-03-07T11:33:17.358Z,4.72
2018-03-07T11:35:46.971Z,4.20
2018-03-07T11:38:16.091Z,4.45
2018-03-07T11:40:45.004Z,4.78
2018-03-07T11:43:13.159Z,4.07
2018-03-07T11:45:41.262Z,4.15
2018-03-07T11:48:09.379Z,4.15
2018-03-07T11:50:38.263Z,4.15
2018-03-07T11:53:07.142Z,4.12
2018-03-07T11:55:35.269Z,4.10
2018-03-07T11:58:03.387Z,3.40
2018-03-07T12:00:31.532Z,4.28
2018-03-07T12:02:59.701Z,3.87
2018-03-07T12:05:27.792Z,4.30
2018-03-07T12:07:55.952Z,3.22
2018-03-07T12:10:24.075Z,3.95
2018-03-07T12:12:52.958Z,2.97
2018-03-07T12:15:21.891Z,2.75
2018-03-07T12:17:49.999Z,3.12
2018-03-07T12:20:18.128Z,3.35
2018-03-07T12:22:46.375Z,2.90
2018-03-07T12:25:15.266Z,3.22
2018-03-07T12:27:44.162Z,3.00
2018-03-07T12:30:13.062Z,3.35
2018-03-07T12:32:41.190Z,3.00
2018-03-07T12:35:09.300Z,3.20
2018-03-07T12:37:38.400Z,2.83
2018-03-07T12:40:07.386Z,3.58
2018-03-07T12:42:36.300Z,3.30
2018-03-07T12:45:04.413Z,3.30
2018-03-07T12:47:32.544Z,2.65
2018-03-07T12:50:00.674Z,2.95
2018-03-07T12:52:30.323Z,3.72
2018-03-07T12:54:58.432Z,2.80
2018-03-07T12:57:26.552Z,3.03
2018-03-07T12:59:55.662Z,3.35
2018-03-07T13:02:23.928Z,3.20
2018-03-07T13:04:52.796Z,3.15
2018-03-07T13:07:21.734Z,2.85
2018-03-07T13:09:49.980Z,2.62
2018-03-07T13:12:18.918Z,3.00
2018-03-07T13:14:47.050Z,2.95
2018-03-07T13:17:15.920Z,2.80
2018-03-07T13:19:44.804Z,2.72
2018-03-07T13:22:13.208Z,2.85
2018-03-07T13:24:41.408Z,2.50
2018-03-07T13:27:09.591Z,2.50
2018-03-07T13:29:37.760Z,2.50
2018-03-07T13:32:05.924Z,2.40
2018-03-07T13:34:34.028Z,2.90
2018-03-07T13:37:02.140Z,2.70
2018-03-07T13:39:31.042Z,2.78
2018-03-07T13:41:59.187Z,2.87
2018-03-07T13:44:28.065Z,2.42
2018-03-07T13:46:56.951Z,2.33
2018-03-07T13:49:25.087Z,2.60
2018-03-07T13:51:53.220Z,2.08
2018-03-07T13:54:22.096Z,2.05
2018-03-07T13:56:50.248Z,2.20
2018-03-07T13:59:18.356Z,2.20
2018-03-07T14:01:47.372Z,2.15
2018-03-07T14:04:15.484Z,2.62
2018-03-07T14:06:43.597Z,2.30
2018-03-07T14:09:12.603Z,2.15
2018-03-07T14:11:40.747Z,2.28
2018-03-07T14:14:08.934Z,2.50
2018-03-07T14:16:37.816Z,2.40
2018-03-07T14:19:06.216Z,2.47
2018-03-07T14:21:34.343Z,2.80
2018-03-07T14:24:02.476Z,3.15
2018-03-07T14:26:30.594Z,3.22
2018-03-07T14:28:58.691Z,3.20
2018-03-07T14:31:27.575Z,3.75
2018-03-07T14:33:56.462Z,3.92
2018-03-07T14:36:24.567Z,4.55
2018-03-07T14:38:52.721Z,5.70
2018-03-07T14:41:21.618Z,5.50
2018-03-07T14:43:50.495Z,6.22
2018-03-07T14:46:19.376Z,6.37
2018-03-07T14:48:47.523Z,6.80
2018-03-07T14:51:15.676Z,7.28
2018-03-07T14:53:43.825Z,6.32
2018-03-07T14:56:12.023Z,5.90
2018-03-07T14:58:40.164Z,5.72
2018-03-07T15:01:08.247Z,5.45
2018-03-07T15:03:36.417Z,5.10
2018-03-07T15:06:05.307Z,5.00
2018-03-07T15:08:33.466Z,5.15
2018-03-07T15:11:02.363Z,4.90
2018-03-07T15:13:31.367Z,4.78
2018-03-07T15:15:59.469Z,4.90
2018-03-07T15:18:27.566Z,5.20
2018-03-07T15:20:55.813Z,5.47
2018-03-07T15:23:23.952Z,5.50
2018-03-07T15:25:52.817Z,4.55
2018-03-07T15:28:22.454Z,4.97
2018-03-07T15:30:51.327Z,4.00
2018-03-07T15:33:20.223Z,3.40
2018-03-07T15:35:49.118Z,3.25
2018-03-07T15:38:18.124Z,3.28
2018-03-07T15:40:46.251Z,3.50
2018-03-07T15:43:14.351Z,3.72
2018-03-07T15:45:43.307Z,3.72
2018-03-07T15:48:11.431Z,4.20
2018-03-07T15:50:40.371Z,4.12
2018-03-07T15:53:08.478Z,4.00
2018-03-07T15:55:37.382Z,4.47
2018-03-07T15:58:06.254Z,4.62
2018-03-07T16:00:35.158Z,4.35
2018-03-07T16:03:04.247Z,4.10
2018-03-07T16:05:33.122Z,4.07
2018-03-07T16:08:02.036Z,4.05
2018-03-07T16:10:30.152Z,4.07
2018-03-07T16:12:58.360Z,4.03
2018-03-07T16:15:26.459Z,4.32
2018-03-07T16:17:54.626Z,4.55
2018-03-07T16:20:22.748Z,4.32
2018-03-07T16:22:50.852Z,4.53
2018-03-07T16:25:19.720Z,4.25
2018-03-07T16:27:47.857Z,4.72
2018-03-07T16:30:15.966Z,4.95
2018-03-07T16:32:44.106Z,4.90
2018-03-07T16:35:12.216Z,5.37
2018-03-07T16:37:41.110Z,5.55
2018-03-07T16:40:09.282Z,5.87
2018-03-07T16:42:37.386Z,6.43
2018-03-07T16:45:06.256Z,6.43
2018-03-07T16:47:34.362Z,7.30
2018-03-07T16:50:02.497Z,7.60
2018-03-07T16:55:05.837Z,9.38
2018-03-07T16:57:34.006Z,9.82
2018-03-07T17:00:02.139Z,9.75
2018-03-07T17:02:30.255Z,10.55
2018-03-07T17:04:58.411Z,10.70
2018-03-07T17:07:27.428Z,12.05
2018-03-07T17:09:55.568Z,12.27
2018-03-07T17:12:23.763Z,12.65
2018-03-07T17:14:51.899Z,13.23
2018-03-07T17:17:20.026Z,12.02
2018-03-07T17:19:48.199Z,12.27
2018-03-07T17:22:16.368Z,12.25
2018-03-07T17:24:44.497Z,11.88
2018-03-07T17:27:13.420Z,10.85
2018-03-07T17:29:42.348Z,10.20
2018-03-07T17:32:10.496Z,7.28
2018-03-07T17:34:38.729Z,6.62
2018-03-07T17:37:07.534Z,5.70
2018-03-07T17:39:36.444Z,6.25
2018-03-07T17:42:04.568Z,6.87
2018-03-07T17:44:32.814Z,7.57
2018-03-07T17:47:00.918Z,7.62
2018-03-07T17:49:29.027Z,8.48
2018-03-07T17:51:57.907Z,8.88
2018-03-07T17:54:26.812Z,9.90
2018-03-07T17:56:54.932Z,11.05
2018-03-07T17:59:23.084Z,11.00
2018-03-07T18:01:51.208Z,11.85
2018-03-07T18:04:20.108Z,12.43
2018-03-07T18:06:49.022Z,13.77
2018-03-07T18:09:17.905Z,13.60
2018-03-07T18:11:46.032Z,15.30
2018-03-07T18:14:14.159Z,14.65
2018-03-07T18:16:42.295Z,16.42
2018-03-07T18:19:10.438Z,14.87
2018-03-07T18:21:38.559Z,14.98
2018-03-07T18:24:06.743Z,17.35
2018-03-07T18:26:34.887Z,15.13
2018-03-07T18:29:03.091Z,17.95
2018-03-07T18:31:31.266Z,17.73
2018-03-07T18:33:59.435Z,15.18
2018-03-07T18:36:27.603Z,18.25
2018-03-07T18:38:56.536Z,18.05
2018-03-07T18:41:24.689Z,19.00
2018-03-07T18:43:52.820Z,21.45
2018-03-07T18:46:21.711Z,20.10
2018-03-07T18:48:50.627Z,21.12
2018-03-07T18:51:18.799Z,23.33
2018-03-07T18:53:46.929Z,21.90
2018-03-07T18:56:15.071Z,25.60
2018-03-07T18:58:43.173Z,24.63
2018-03-07T19:01:11.319Z,25.55
2018-03-07T19:03:41.079Z,27.83
2018-03-07T19:06:09.990Z,28.98
2018-03-07T19:08:38.110Z,28.73
2018-03-07T19:11:06.232Z,32.85
2018-03-07T19:13:34.408Z,32.35
2018-03-07T19:16:02.532Z,33.63
2018-03-07T19:18:30.639Z,33.08
2018-03-07T19:20:59.554Z,30.33
2018-03-07T19:23:27.699Z,31.62
2018-03-07T19:25:56.623Z,30.40
2018-03-07T19:28:24.882Z,28.75
2018-03-07T19:30:53.014Z,29.70
2018-03-07T19:33:21.178Z,29.20
2018-03-07T19:35:49.292Z,29.33
2018-03-07T19:38:18.178Z,27.58
2018-03-07T19:40:47.180Z,27.90
2018-03-07T19:43:16.180Z,29.15
2018-03-07T19:45:44.282Z,29.12
2018-03-07T19:48:12.400Z,27.17
2018-03-07T19:50:41.884Z,28.80
2018-03-07T19:53:10.029Z,27.58
2018-03-07T19:55:38.144Z,27.42
2018-03-07T19:58:06.251Z,26.50
2018-03-07T20:00:34.406Z,28.95
2018-03-07T20:03:03.306Z,28.87
2018-03-07T20:05:31.476Z,28.38
2018-03-07T20:08:00.364Z,29.25
2018-03-07T20:10:28.508Z,28.58
2018-03-07T20:12:56.639Z,27.42
2018-03-07T20:15:24.778Z,27.62
2018-03-07T20:17:53.673Z,28.98
2018-03-07T20:20:22.574Z,28.10
2018-03-07T20:22:50.690Z,28.30
2018-03-07T20:25:18.836Z,28.02
2018-03-07T20:27:46.950Z,27.60
2018-03-07T20:30:16.562Z,27.58
2018-03-07T20:32:45.466Z,28.90
2018-03-07T20:35:14.394Z,27.60
2018-03-07T20:37:42.500Z,28.02
2018-03-07T20:40:10.622Z,28.33
2018-03-07T20:42:38.755Z,26.62
2018-03-07T20:45:06.991Z,25.40
2018-03-07T20:47:35.096Z,24.92
2018-03-07T20:50:03.205Z,25.17
2018-03-07T20:52:32.307Z,24.58
2018-03-07T20:55:00.426Z,25.70
2018-03-07T20:57:28.551Z,24.37
2018-03-07T20:59:56.724Z,24.05
2018-03-07T21:02:24.908Z,21.17
2018-03-07T21:04:53.046Z,22.87
2018-03-07T21:07:21.243Z,22.73
2018-03-07T21:09:49.348Z,21.30
2018-03-07T21:12:17.591Z,22.08
2018-03-07T21:14:45.727Z,20.35
2018-03-07T21:17:13.958Z,20.80
2018-03-07T21:19:42.103Z,20.85
2018-03-07T21:22:11.125Z,19.15
2018-03-07T21:24:39.980Z,18.70
2018-03-07T21:27:08.947Z,18.42
2018-03-07T21:29:37.082Z,18.48
2018-03-07T21:32:05.260Z,17.87
2018-03-07T21:34:33.409Z,16.92
2018-03-07T21:37:01.523Z,16.45
2018-03-07T21:39:29.635Z,16.23
2018-03-07T21:41:57.784Z,15.68
2018-03-07T21:44:25.995Z,14.70
2018-03-07T21:46:54.117Z,14.15
2018-03-07T21:49:22.304Z,13.77
2018-03-07T21:51:50.397Z,13.15
2018-03-07T21:54:19.297Z,11.43
2018-03-07T21:56:48.164Z,12.63
2018-03-07T21:59:16.276Z,11.35
2018-03-07T22:01:44.419Z,11.10
2018-03-07T22:04:13.443Z,11.00
2018-03-07T22:06:41.615Z,10.23
2018-03-07T22:09:09.700Z,10.52
2018-03-07T22:11:37.869Z,11.02
2018-03-07T22:14:06.031Z,10.00
2018-03-07T22:16:34.199Z,9.77
2018-03-07T22:19:02.319Z,10.48
2018-03-07T22:21:30.461Z,9.85
2018-03-07T22:23:58.637Z,9.10
2018-03-07T22:26:26.721Z,9.02
2018-03-07T22:28:54.839Z,11.15
2018-03-07T22:31:23.749Z,9.60
2018-03-07T22:33:51.889Z,9.73
2018-03-07T22:36:19.995Z,9.00
2018-03-07T22:38:48.123Z,9.70
2018-03-07T22:41:16.251Z,8.50
2018-03-07T22:43:44.408Z,8.68
2018-03-07T22:46:12.589Z,9.45
2018-03-07T22:48:40.759Z,9.10
2018-03-07T22:51:08.873Z,9.50
2018-03-07T22:53:37.107Z,10.45
2018-03-07T22:56:05.252Z,9.32
2018-03-07T22:58:33.387Z,8.77
2018-03-07T23:01:01.489Z,8.45
2018-03-07T23:03:29.637Z,9.10
2018-03-07T23:05:57.788Z,9.18
2018-03-07T23:08:25.904Z,8.90
2018-03-07T23:10:54.015Z,8.82
2018-03-07T23:13:22.192Z,8.70
2018-03-07T23:15:50.365Z,9.00
2018-03-07T23:18:18.486Z,9.30
2018-03-07T23:20:46.597Z,8.93
2018-03-07T23:25:40.521Z,8.23
2018-03-07T23:28:08.660Z,8.82
2018-03-07T23:30:36.855Z,8.00
2018-03-07T23:33:05.013Z,8.73
2018-03-07T23:35:33.127Z,7.87
2018-03-07T23:38:01.259Z,8.30
2018-03-07T23:40:29.382Z,8.25
2018-03-07T23:42:57.529Z,8.02
2018-03-07T23:45:25.632Z,9.63
2018-03-07T23:47:53.780Z,8.25
2018-03-07T23:50:21.922Z,7.78
2018-03-07T23:52:50.101Z,8.00
2018-03-07T23:55:18.244Z,8.68
2018-03-07T23:57:47.147Z,7.82
